sensor_id;sensor_type;location;lat;lon;timestamp;temperature;humidity
52799;DHT22;38667;42.872;74.622;2024-03-02T00:00:49;-1.90;76.60
52799;DHT22;38667;42.872;74.622;2024-03-02T00:03:16;-1.80;75.60
52799;DHT22;38667;42.872;74.622;2024-03-02T00:05:48;-1.80;74.90
52799;DHT22;38667;42.872;74.622;2024-03-02T00:08:17;-1.80;74.80
52799;DHT22;38667;42.872;74.622;2024-03-02T00:10:48;-1.80;73.80
52799;DHT22;38667;42.872;74.622;2024-03-02T00:13:14;-1.70;73.70
52799;DHT22;38667;42.872;74.622;2024-03-02T00:15:42;-1.70;72.80
52799;DHT22;38667;42.872;74.622;2024-03-02T00:18:13;-1.70;72.80
52799;DHT22;38667;42.872;74.622;2024-03-02T00:20:40;-1.80;73.20
52799;DHT22;38667;42.872;74.622;2024-03-02T00:23:09;-1.80;73.70
52799;DHT22;38667;42.872;74.622;2024-03-02T00:25:39;-1.80;74.10
52799;DHT22;38667;42.872;74.622;2024-03-02T00:28:05;-1.80;73.70
52799;DHT22;38667;42.872;74.622;2024-03-02T00:30:52;-1.80;73.90
52799;DHT22;38667;42.872;74.622;2024-03-02T00:33:21;-1.80;73.60
52799;DHT22;38667;42.872;74.622;2024-03-02T00:35:49;-1.80;73.90
52799;DHT22;38667;42.872;74.622;2024-03-02T00:38:17;-1.80;73.80
52799;DHT22;38667;42.872;74.622;2024-03-02T00:40:43;-1.80;73.90
52799;DHT22;38667;42.872;74.622;2024-03-02T00:43:41;-1.80;73.50
52799;DHT22;38667;42.872;74.622;2024-03-02T00:46:08;-1.80;73.30
52799;DHT22;38667;42.872;74.622;2024-03-02T00:48:34;-1.80;73.50
52799;DHT22;38667;42.872;74.622;2024-03-02T00:51:01;-1.80;72.70
52799;DHT22;38667;42.872;74.622;2024-03-02T00:53:29;-1.60;72.50
52799;DHT22;38667;42.872;74.622;2024-03-02T00:55:56;-1.70;71.90
52799;DHT22;38667;42.872;74.622;2024-03-02T00:58:23;-1.70;71.90
52799;DHT22;38667;42.872;74.622;2024-03-02T01:00:49;-1.70;71.90
52799;DHT22;38667;42.872;74.622;2024-03-02T01:03:16;-1.70;72.50
52799;DHT22;38667;42.872;74.622;2024-03-02T01:05:42;-1.60;72.30
52799;DHT22;38667;42.872;74.622;2024-03-02T01:08:09;-1.60;71.40
52799;DHT22;38667;42.872;74.622;2024-03-02T01:10:38;-1.60;71.20
52799;DHT22;38667;42.872;74.622;2024-03-02T01:13:04;-1.60;72.10
52799;DHT22;38667;42.872;74.622;2024-03-02T01:15:30;-1.60;72.30
52799;DHT22;38667;42.872;74.622;2024-03-02T01:17:57;-1.60;72.10
52799;DHT22;38667;42.872;74.622;2024-03-02T01:20:23;-1.60;72.50
52799;DHT22;38667;42.872;74.622;2024-03-02T01:22:49;-1.60;72.50
52799;DHT22;38667;42.872;74.622;2024-03-02T01:25:16;-1.60;72.50
52799;DHT22;38667;42.872;74.622;2024-03-02T01:27:44;-1.60;72.60
52799;DHT22;38667;42.872;74.622;2024-03-02T01:30:11;-1.60;72.50
52799;DHT22;38667;42.872;74.622;2024-03-02T01:32:38;-1.60;71.60
52799;DHT22;38667;42.872;74.622;2024-03-02T01:35:05;-1.60;71.00
52799;DHT22;38667;42.872;74.622;2024-03-02T01:37:31;-1.50;71.00
52799;DHT22;38667;42.872;74.622;2024-03-02T01:39:58;-1.60;70.80
52799;DHT22;38667;42.872;74.622;2024-03-02T01:42:24;-1.60;70.60
52799;DHT22;38667;42.872;74.622;2024-03-02T01:44:52;-1.60;70.80
52799;DHT22;38667;42.872;74.622;2024-03-02T01:47:18;-1.60;71.20
52799;DHT22;38667;42.872;74.622;2024-03-02T01:49:45;-1.60;70.40
52799;DHT22;38667;42.872;74.622;2024-03-02T01:52:11;-1.60;70.20
52799;DHT22;38667;42.872;74.622;2024-03-02T01:54:37;-1.50;70.30
52799;DHT22;38667;42.872;74.622;2024-03-02T01:57:04;-1.50;69.20
52799;DHT22;38667;42.872;74.622;2024-03-02T01:59:31;-1.40;69.00
52799;DHT22;38667;42.872;74.622;2024-03-02T02:01:59;-1.40;69.10
52799;DHT22;38667;42.872;74.622;2024-03-02T02:04:25;-1.40;68.70
52799;DHT22;38667;42.872;74.622;2024-03-02T02:06:52;-1.30;69.20
52799;DHT22;38667;42.872;74.622;2024-03-02T02:09:18;-1.30;69.00
52799;DHT22;38667;42.872;74.622;2024-03-02T02:11:44;-1.30;68.90
52799;DHT22;38667;42.872;74.622;2024-03-02T02:14:11;-1.20;69.00
52799;DHT22;38667;42.872;74.622;2024-03-02T02:16:37;-1.20;68.80
52799;DHT22;38667;42.872;74.622;2024-03-02T02:19:05;-1.10;68.60
52799;DHT22;38667;42.872;74.622;2024-03-02T02:21:33;-1.10;68.50
52799;DHT22;38667;42.872;74.622;2024-03-02T02:23:59;-1.10;68.60
52799;DHT22;38667;42.872;74.622;2024-03-02T02:26:25;-1.00;67.20
52799;DHT22;38667;42.872;74.622;2024-03-02T02:28:52;-0.90;67.10
52799;DHT22;38667;42.872;74.622;2024-03-02T02:31:18;-0.90;66.90
52799;DHT22;38667;42.872;74.622;2024-03-02T02:33:45;-0.80;66.90
52799;DHT22;38667;42.872;74.622;2024-03-02T02:36:11;-0.80;67.10
52799;DHT22;38667;42.872;74.622;2024-03-02T02:38:42;-0.80;67.80
52799;DHT22;38667;42.872;74.622;2024-03-02T02:41:09;-0.70;67.80
52799;DHT22;38667;42.872;74.622;2024-03-02T02:43:35;-0.70;67.50
52799;DHT22;38667;42.872;74.622;2024-03-02T02:46:01;-0.60;67.20
52799;DHT22;38667;42.872;74.622;2024-03-02T02:48:28;-0.50;67.00
52799;DHT22;38667;42.872;74.622;2024-03-02T02:50:54;-0.40;66.00
52799;DHT22;38667;42.872;74.622;2024-03-02T02:53:20;-0.40;64.90
52799;DHT22;38667;42.872;74.622;2024-03-02T02:55:49;-0.30;63.50
52799;DHT22;38667;42.872;74.622;2024-03-02T02:58:15;-0.20;63.60
52799;DHT22;38667;42.872;74.622;2024-03-02T03:00:42;-0.10;62.40
52799;DHT22;38667;42.872;74.622;2024-03-02T03:03:08;0.00;61.10
52799;DHT22;38667;42.872;74.622;2024-03-02T03:05:34;0.10;61.10
52799;DHT22;38667;42.872;74.622;2024-03-02T03:08:01;0.20;61.70
52799;DHT22;38667;42.872;74.622;2024-03-02T03:10:27;0.20;60.30
52799;DHT22;38667;42.872;74.622;2024-03-02T03:12:55;0.30;60.20
52799;DHT22;38667;42.872;74.622;2024-03-02T03:15:22;0.30;59.60
52799;DHT22;38667;42.872;74.622;2024-03-02T03:17:48;0.40;59.30
52799;DHT22;38667;42.872;74.622;2024-03-02T03:20:14;0.40;59.50
52799;DHT22;38667;42.872;74.622;2024-03-02T03:22:41;0.50;59.60
52799;DHT22;38667;42.872;74.622;2024-03-02T03:25:08;0.60;58.60
52799;DHT22;38667;42.872;74.622;2024-03-02T03:27:34;0.70;59.20
52799;DHT22;38667;42.872;74.622;2024-03-02T03:30:05;0.70;57.90
52799;DHT22;38667;42.872;74.622;2024-03-02T03:32:32;0.80;58.50
52799;DHT22;38667;42.872;74.622;2024-03-02T03:34:58;0.90;57.50
52799;DHT22;38667;42.872;74.622;2024-03-02T03:37:24;1.00;57.10
52799;DHT22;38667;42.872;74.622;2024-03-02T03:39:51;1.10;57.00
52799;DHT22;38667;42.872;74.622;2024-03-02T03:42:17;1.10;57.30
52799;DHT22;38667;42.872;74.622;2024-03-02T03:44:43;1.30;56.60
52799;DHT22;38667;42.872;74.622;2024-03-02T03:47:11;1.40;56.00
52799;DHT22;38667;42.872;74.622;2024-03-02T03:49:37;1.40;55.30
52799;DHT22;38667;42.872;74.622;2024-03-02T03:52:04;1.40;55.60
52799;DHT22;38667;42.872;74.622;2024-03-02T03:54:31;1.50;56.80
52799;DHT22;38667;42.872;74.622;2024-03-02T03:56:57;1.60;54.10
52799;DHT22;38667;42.872;74.622;2024-03-02T03:59:23;1.70;53.70
52799;DHT22;38667;42.872;74.622;2024-03-02T04:01:50;1.90;53.00
52799;DHT22;38667;42.872;74.622;2024-03-02T04:04:18;1.90;52.20
52799;DHT22;38667;42.872;74.622;2024-03-02T04:06:44;1.90;52.70
52799;DHT22;38667;42.872;74.622;2024-03-02T04:09:10;2.10;52.50
52799;DHT22;38667;42.872;74.622;2024-03-02T04:11:37;2.20;51.40
52799;DHT22;38667;42.872;74.622;2024-03-02T04:14:03;2.40;51.40
52799;DHT22;38667;42.872;74.622;2024-03-02T04:16:30;2.40;50.00
52799;DHT22;38667;42.872;74.622;2024-03-02T04:18:56;2.30;49.20
52799;DHT22;38667;42.872;74.622;2024-03-02T04:21:24;2.30;49.70
52799;DHT22;38667;42.872;74.622;2024-03-02T04:23:50;2.30;50.60
52799;DHT22;38667;42.872;74.622;2024-03-02T04:26:17;2.40;50.60
52799;DHT22;38667;42.872;74.622;2024-03-02T04:28:43;2.60;49.50
52799;DHT22;38667;42.872;74.622;2024-03-02T04:31:09;2.60;50.40
52799;DHT22;38667;42.872;74.622;2024-03-02T04:33:36;2.70;49.30
52799;DHT22;38667;42.872;74.622;2024-03-02T04:36:02;2.90;48.30
52799;DHT22;38667;42.872;74.622;2024-03-02T04:38:31;2.90;46.90
52799;DHT22;38667;42.872;74.622;2024-03-02T04:40:57;2.90;48.00
52799;DHT22;38667;42.872;74.622;2024-03-02T04:43:23;3.00;48.10
52799;DHT22;38667;42.872;74.622;2024-03-02T04:45:50;3.00;46.60
52799;DHT22;38667;42.872;74.622;2024-03-02T04:48:16;2.90;47.20
52799;DHT22;38667;42.872;74.622;2024-03-02T04:50:42;3.00;48.10
52799;DHT22;38667;42.872;74.622;2024-03-02T04:53:09;3.10;46.80
52799;DHT22;38667;42.872;74.622;2024-03-02T04:55:37;3.20;46.90
52799;DHT22;38667;42.872;74.622;2024-03-02T04:58:06;3.10;45.70
52799;DHT22;38667;42.872;74.622;2024-03-02T05:00:32;3.10;45.90
52799;DHT22;38667;42.872;74.622;2024-03-02T05:02:59;3.10;46.40
52799;DHT22;38667;42.872;74.622;2024-03-02T05:05:25;3.10;46.80
52799;DHT22;38667;42.872;74.622;2024-03-02T05:07:52;3.00;46.80
52799;DHT22;38667;42.872;74.622;2024-03-02T05:10:18;3.10;47.60
52799;DHT22;38667;42.872;74.622;2024-03-02T05:12:46;3.10;47.30
52799;DHT22;38667;42.872;74.622;2024-03-02T05:15:13;3.10;46.30
52799;DHT22;38667;42.872;74.622;2024-03-02T05:17:41;3.10;46.20
52799;DHT22;38667;42.872;74.622;2024-03-02T05:20:08;3.00;46.50
52799;DHT22;38667;42.872;74.622;2024-03-02T05:22:35;3.00;46.20
52799;DHT22;38667;42.872;74.622;2024-03-02T05:25:01;3.00;46.60
52799;DHT22;38667;42.872;74.622;2024-03-02T05:27:28;3.10;46.10
52799;DHT22;38667;42.872;74.622;2024-03-02T05:29:56;3.10;46.20
52799;DHT22;38667;42.872;74.622;2024-03-02T05:32:22;3.20;46.00
52799;DHT22;38667;42.872;74.622;2024-03-02T05:34:48;3.40;46.30
52799;DHT22;38667;42.872;74.622;2024-03-02T05:37:16;3.30;46.30
52799;DHT22;38667;42.872;74.622;2024-03-02T05:39:42;3.50;46.30
52799;DHT22;38667;42.872;74.622;2024-03-02T05:42:08;3.60;45.60
52799;DHT22;38667;42.872;74.622;2024-03-02T05:44:35;3.60;45.00
52799;DHT22;38667;42.872;74.622;2024-03-02T05:47:03;3.70;46.40
52799;DHT22;38667;42.872;74.622;2024-03-02T05:49:30;3.80;46.30
52799;DHT22;38667;42.872;74.622;2024-03-02T05:51:56;3.90;45.50
52799;DHT22;38667;42.872;74.622;2024-03-02T05:54:22;4.00;45.30
52799;DHT22;38667;42.872;74.622;2024-03-02T05:56:49;4.20;44.80
52799;DHT22;38667;42.872;74.622;2024-03-02T05:59:15;4.20;45.30
52799;DHT22;38667;42.872;74.622;2024-03-02T06:01:43;4.30;44.80
52799;DHT22;38667;42.872;74.622;2024-03-02T06:04:12;4.30;45.10
52799;DHT22;38667;42.872;74.622;2024-03-02T06:06:38;4.30;44.70
52799;DHT22;38667;42.872;74.622;2024-03-02T06:09:05;4.10;45.20
52799;DHT22;38667;42.872;74.622;2024-03-02T06:11:32;4.20;45.90
52799;DHT22;38667;42.872;74.622;2024-03-02T06:13:58;4.30;45.60
52799;DHT22;38667;42.872;74.622;2024-03-02T06:16:25;4.30;45.80
52799;DHT22;38667;42.872;74.622;2024-03-02T06:18:51;4.10;45.50
52799;DHT22;38667;42.872;74.622;2024-03-02T06:21:19;4.20;46.10
52799;DHT22;38667;42.872;74.622;2024-03-02T06:23:45;4.20;46.10
52799;DHT22;38667;42.872;74.622;2024-03-02T06:26:12;4.30;46.00
52799;DHT22;38667;42.872;74.622;2024-03-02T06:28:38;4.40;45.30
52799;DHT22;38667;42.872;74.622;2024-03-02T06:31:05;4.40;45.60
52799;DHT22;38667;42.872;74.622;2024-03-02T06:33:31;4.30;46.20
52799;DHT22;38667;42.872;74.622;2024-03-02T06:35:57;4.30;46.00
52799;DHT22;38667;42.872;74.622;2024-03-02T06:38:25;4.30;46.50
52799;DHT22;38667;42.872;74.622;2024-03-02T06:40:52;4.30;46.30
52799;DHT22;38667;42.872;74.622;2024-03-02T06:43:18;4.30;46.20
52799;DHT22;38667;42.872;74.622;2024-03-02T06:45:44;4.40;46.90
52799;DHT22;38667;42.872;74.622;2024-03-02T06:48:11;4.60;46.70
52799;DHT22;38667;42.872;74.622;2024-03-02T06:50:40;4.80;46.80
52799;DHT22;38667;42.872;74.622;2024-03-02T06:53:06;5.00;45.30
52799;DHT22;38667;42.872;74.622;2024-03-02T06:55:35;4.90;45.40
52799;DHT22;38667;42.872;74.622;2024-03-02T06:58:01;4.80;46.70
52799;DHT22;38667;42.872;74.622;2024-03-02T07:00:27;4.60;45.50
52799;DHT22;38667;42.872;74.622;2024-03-02T07:02:54;4.50;46.60
52799;DHT22;38667;42.872;74.622;2024-03-02T07:05:21;4.20;46.70
52799;DHT22;38667;42.872;74.622;2024-03-02T07:07:47;4.00;47.60
52799;DHT22;38667;42.872;74.622;2024-03-02T07:10:14;4.00;48.80
52799;DHT22;38667;42.872;74.622;2024-03-02T07:12:42;4.00;48.50
52799;DHT22;38667;42.872;74.622;2024-03-02T07:15:09;4.00;48.40
52799;DHT22;38667;42.872;74.622;2024-03-02T07:17:35;4.00;48.60
52799;DHT22;38667;42.872;74.622;2024-03-02T07:20:02;4.00;47.90
52799;DHT22;38667;42.872;74.622;2024-03-02T07:22:28;3.90;47.90
52799;DHT22;38667;42.872;74.622;2024-03-02T07:24:55;4.00;48.30
52799;DHT22;38667;42.872;74.622;2024-03-02T07:27:21;4.00;48.60
52799;DHT22;38667;42.872;74.622;2024-03-02T07:29:49;4.10;49.60
52799;DHT22;38667;42.872;74.622;2024-03-02T07:32:16;4.20;49.70
52799;DHT22;38667;42.872;74.622;2024-03-02T07:34:42;4.30;49.20
52799;DHT22;38667;42.872;74.622;2024-03-02T07:37:08;4.40;49.70
52799;DHT22;38667;42.872;74.622;2024-03-02T07:39:35;4.40;48.80
52799;DHT22;38667;42.872;74.622;2024-03-02T07:42:01;4.40;48.30
52799;DHT22;38667;42.872;74.622;2024-03-02T07:44:28;4.50;48.50
52799;DHT22;38667;42.872;74.622;2024-03-02T07:46:56;4.40;48.10
52799;DHT22;38667;42.872;74.622;2024-03-02T07:49:22;4.50;48.00
52799;DHT22;38667;42.872;74.622;2024-03-02T07:51:48;4.60;49.20
52799;DHT22;38667;42.872;74.622;2024-03-02T07:54:15;5.00;48.60
52799;DHT22;38667;42.872;74.622;2024-03-02T07:56:41;5.20;47.60
52799;DHT22;38667;42.872;74.622;2024-03-02T07:59:07;5.40;47.80
52799;DHT22;38667;42.872;74.622;2024-03-02T08:01:34;5.40;47.80
52799;DHT22;38667;42.872;74.622;2024-03-02T08:04:02;5.30;48.20
52799;DHT22;38667;42.872;74.622;2024-03-02T08:06:29;5.20;50.00
52799;DHT22;38667;42.872;74.622;2024-03-02T08:08:56;5.10;50.60
52799;DHT22;38667;42.872;74.622;2024-03-02T08:11:22;4.80;51.80
52799;DHT22;38667;42.872;74.622;2024-03-02T08:13:49;4.50;52.50
52799;DHT22;38667;42.872;74.622;2024-03-02T08:16:16;4.20;53.90
52799;DHT22;38667;42.872;74.622;2024-03-02T08:18:42;4.20;54.30
52799;DHT22;38667;42.872;74.622;2024-03-02T08:21:10;3.90;55.00
52799;DHT22;38667;42.872;74.622;2024-03-02T08:23:37;3.70;55.60
52799;DHT22;38667;42.872;74.622;2024-03-02T08:26:04;3.60;56.20
52799;DHT22;38667;42.872;74.622;2024-03-02T08:28:30;3.30;56.70
52799;DHT22;38667;42.872;74.622;2024-03-02T08:30:57;3.20;57.60
52799;DHT22;38667;42.872;74.622;2024-03-02T08:33:23;3.20;58.20
52799;DHT22;38667;42.872;74.622;2024-03-02T08:35:50;3.20;58.10
52799;DHT22;38667;42.872;74.622;2024-03-02T08:38:18;3.20;58.20
52799;DHT22;38667;42.872;74.622;2024-03-02T08:40:44;3.20;58.10
52799;DHT22;38667;42.872;74.622;2024-03-02T08:43:11;3.10;57.90
52799;DHT22;38667;42.872;74.622;2024-03-02T08:45:38;3.00;59.30
52799;DHT22;38667;42.872;74.622;2024-03-02T08:48:05;2.90;59.20
52799;DHT22;38667;42.872;74.622;2024-03-02T08:50:32;2.90;59.90
52799;DHT22;38667;42.872;74.622;2024-03-02T08:52:58;2.90;60.10
52799;DHT22;38667;42.872;74.622;2024-03-02T08:55:27;2.90;60.40
52799;DHT22;38667;42.872;74.622;2024-03-02T08:57:53;2.90;59.90
52799;DHT22;38667;42.872;74.622;2024-03-02T09:00:20;3.00;60.00
52799;DHT22;38667;42.872;74.622;2024-03-02T09:02:47;2.90;60.10
52799;DHT22;38667;42.872;74.622;2024-03-02T09:05:13;2.80;60.70
52799;DHT22;38667;42.872;74.622;2024-03-02T09:07:40;2.70;61.40
52799;DHT22;38667;42.872;74.622;2024-03-02T09:10:07;2.70;63.60
52799;DHT22;38667;42.872;74.622;2024-03-02T09:12:36;2.60;62.60
52799;DHT22;38667;42.872;74.622;2024-03-02T09:15:04;2.50;63.30
52799;DHT22;38667;42.872;74.622;2024-03-02T09:17:31;2.50;63.60
52799;DHT22;38667;42.872;74.622;2024-03-02T09:19:57;2.50;64.10
52799;DHT22;38667;42.872;74.622;2024-03-02T09:22:24;2.30;64.70
52799;DHT22;38667;42.872;74.622;2024-03-02T09:24:51;2.40;65.50
52799;DHT22;38667;42.872;74.622;2024-03-02T09:27:17;2.30;65.90
52799;DHT22;38667;42.872;74.622;2024-03-02T09:29:45;2.30;66.30
52799;DHT22;38667;42.872;74.622;2024-03-02T09:32:13;2.20;67.10
52799;DHT22;38667;42.872;74.622;2024-03-02T09:34:40;2.10;66.90
52799;DHT22;38667;42.872;74.622;2024-03-02T09:37:06;2.00;69.30
52799;DHT22;38667;42.872;74.622;2024-03-02T09:39:33;2.00;69.10
52799;DHT22;38667;42.872;74.622;2024-03-02T09:41:59;2.00;69.20
52799;DHT22;38667;42.872;74.622;2024-03-02T09:44:26;2.10;70.40
52799;DHT22;38667;42.872;74.622;2024-03-02T09:46:54;2.10;70.90
52799;DHT22;38667;42.872;74.622;2024-03-02T09:49:20;2.20;70.80
52799;DHT22;38667;42.872;74.622;2024-03-02T09:51:48;2.20;70.00
52799;DHT22;38667;42.872;74.622;2024-03-02T09:54:14;2.20;69.30
52799;DHT22;38667;42.872;74.622;2024-03-02T09:56:41;2.30;68.80
52799;DHT22;38667;42.872;74.622;2024-03-02T09:59:07;2.30;68.50
52799;DHT22;38667;42.872;74.622;2024-03-02T10:01:34;2.40;67.50
52799;DHT22;38667;42.872;74.622;2024-03-02T10:04:02;2.40;67.50
52799;DHT22;38667;42.872;74.622;2024-03-02T10:06:30;2.30;67.40
52799;DHT22;38667;42.872;74.622;2024-03-02T10:08:57;2.20;68.20
52799;DHT22;38667;42.872;74.622;2024-03-02T10:11:27;2.20;69.00
52799;DHT22;38667;42.872;74.622;2024-03-02T10:14:04;2.20;68.30
52799;DHT22;38667;42.872;74.622;2024-03-02T10:16:31;2.10;66.30
52799;DHT22;38667;42.872;74.622;2024-03-02T10:18:57;2.10;66.60
52799;DHT22;38667;42.872;74.622;2024-03-02T10:21:25;2.10;66.50
52799;DHT22;38667;42.872;74.622;2024-03-02T10:23:51;2.20;65.60
52799;DHT22;38667;42.872;74.622;2024-03-02T10:26:18;2.30;64.80
52799;DHT22;38667;42.872;74.622;2024-03-02T10:28:46;2.30;63.10
52799;DHT22;38667;42.872;74.622;2024-03-02T10:31:13;2.30;62.60
52799;DHT22;38667;42.872;74.622;2024-03-02T10:33:40;2.30;61.10
52799;DHT22;38667;42.872;74.622;2024-03-02T10:36:08;2.20;60.50
52799;DHT22;38667;42.872;74.622;2024-03-02T10:38:37;2.20;60.90
52799;DHT22;38667;42.872;74.622;2024-03-02T10:41:03;2.20;60.60
52799;DHT22;38667;42.872;74.622;2024-03-02T10:43:31;2.20;59.30
52799;DHT22;38667;42.872;74.622;2024-03-02T10:45:58;2.20;58.80
52799;DHT22;38667;42.872;74.622;2024-03-02T10:48:27;2.20;59.40
52799;DHT22;38667;42.872;74.622;2024-03-02T10:50:54;2.20;59.30
52799;DHT22;38667;42.872;74.622;2024-03-02T10:53:20;2.10;59.10
52799;DHT22;38667;42.872;74.622;2024-03-02T10:55:52;2.10;59.80
52799;DHT22;38667;42.872;74.622;2024-03-02T10:58:25;2.10;60.00
52799;DHT22;38667;42.872;74.622;2024-03-02T11:00:53;2.00;59.60
52799;DHT22;38667;42.872;74.622;2024-03-02T11:03:21;1.90;59.40
52799;DHT22;38667;42.872;74.622;2024-03-02T11:05:48;2.00;60.10
52799;DHT22;38667;42.872;74.622;2024-03-02T11:08:19;1.90;59.60
52799;DHT22;38667;42.872;74.622;2024-03-02T11:10:50;2.00;59.10
52799;DHT22;38667;42.872;74.622;2024-03-02T11:13:16;2.00;58.10
52799;DHT22;38667;42.872;74.622;2024-03-02T11:15:46;1.90;57.80
52799;DHT22;38667;42.872;74.622;2024-03-02T11:18:14;1.90;58.20
52799;DHT22;38667;42.872;74.622;2024-03-02T11:20:41;1.90;58.60
52799;DHT22;38667;42.872;74.622;2024-03-02T11:23:08;1.90;59.50
52799;DHT22;38667;42.872;74.622;2024-03-02T11:25:35;1.90;59.90
52799;DHT22;38667;42.872;74.622;2024-03-02T11:28:05;1.90;59.10
52799;DHT22;38667;42.872;74.622;2024-03-02T11:30:50;1.80;59.20
52799;DHT22;38667;42.872;74.622;2024-03-02T11:33:26;1.80;59.60
52799;DHT22;38667;42.872;74.622;2024-03-02T11:35:52;1.80;59.80
52799;DHT22;38667;42.872;74.622;2024-03-02T11:38:19;1.90;60.10
52799;DHT22;38667;42.872;74.622;2024-03-02T11:40:45;1.90;59.80
52799;DHT22;38667;42.872;74.622;2024-03-02T11:43:14;1.80;59.50
52799;DHT22;38667;42.872;74.622;2024-03-02T11:45:42;1.70;60.10
52799;DHT22;38667;42.872;74.622;2024-03-02T11:48:09;1.60;61.30
52799;DHT22;38667;42.872;74.622;2024-03-02T11:50:40;1.50;61.90
52799;DHT22;38667;42.872;74.622;2024-03-02T11:53:08;1.60;62.90
52799;DHT22;38667;42.872;74.622;2024-03-02T11:55:35;1.50;63.60
52799;DHT22;38667;42.872;74.622;2024-03-02T11:58:03;1.50;63.60
52799;DHT22;38667;42.872;74.622;2024-03-02T12:00:31;1.40;64.40
52799;DHT22;38667;42.872;74.622;2024-03-02T12:03:00;1.40;64.70
52799;DHT22;38667;42.872;74.622;2024-03-02T12:05:27;1.30;64.90
52799;DHT22;38667;42.872;74.622;2024-03-02T12:07:56;1.30;65.30
52799;DHT22;38667;42.872;74.622;2024-03-02T12:10:23;1.30;65.30
52799;DHT22;38667;42.872;74.622;2024-03-02T12:12:56;1.20;65.20
52799;DHT22;38667;42.872;74.622;2024-03-02T12:15:25;1.20;65.40
52799;DHT22;38667;42.872;74.622;2024-03-02T12:17:55;1.20;65.50
52799;DHT22;38667;42.872;74.622;2024-03-02T12:20:21;1.20;66.30
52799;DHT22;38667;42.872;74.622;2024-03-02T12:22:48;1.20;67.00
52799;DHT22;38667;42.872;74.622;2024-03-02T12:25:15;1.10;68.10
52799;DHT22;38667;42.872;74.622;2024-03-02T12:27:42;1.10;68.50
52799;DHT22;38667;42.872;74.622;2024-03-02T12:30:09;1.20;69.00
52799;DHT22;38667;42.872;74.622;2024-03-02T12:32:35;1.20;69.40
52799;DHT22;38667;42.872;74.622;2024-03-02T12:35:04;1.20;69.70
52799;DHT22;38667;42.872;74.622;2024-03-02T12:37:31;1.20;69.70
52799;DHT22;38667;42.872;74.622;2024-03-02T12:39:57;1.30;70.00
52799;DHT22;38667;42.872;74.622;2024-03-02T12:42:27;1.20;69.80
52799;DHT22;38667;42.872;74.622;2024-03-02T12:44:53;1.20;70.10
52799;DHT22;38667;42.872;74.622;2024-03-02T12:47:20;1.20;70.00
52799;DHT22;38667;42.872;74.622;2024-03-02T12:49:46;1.20;69.90
52799;DHT22;38667;42.872;74.622;2024-03-02T12:52:14;1.20;69.40
52799;DHT22;38667;42.872;74.622;2024-03-02T12:54:41;1.20;69.40
52799;DHT22;38667;42.872;74.622;2024-03-02T13:00:11;1.20;68.60
52799;DHT22;38667;42.872;74.622;2024-03-02T13:02:40;1.30;69.00
52799;DHT22;38667;42.872;74.622;2024-03-02T13:05:07;1.20;69.40
52799;DHT22;38667;42.872;74.622;2024-03-02T13:07:35;1.20;69.70
52799;DHT22;38667;42.872;74.622;2024-03-02T13:10:02;1.20;70.10
52799;DHT22;38667;42.872;74.622;2024-03-02T13:12:30;1.20;69.90
52799;DHT22;38667;42.872;74.622;2024-03-02T13:14:58;1.20;70.20
52799;DHT22;38667;42.872;74.622;2024-03-02T13:17:24;1.20;70.90
52799;DHT22;38667;42.872;74.622;2024-03-02T13:19:55;1.20;71.30
52799;DHT22;38667;42.872;74.622;2024-03-02T13:22:21;1.30;71.50
52799;DHT22;38667;42.872;74.622;2024-03-02T13:24:49;1.30;71.60
52799;DHT22;38667;42.872;74.622;2024-03-02T13:27:16;1.40;71.00
52799;DHT22;38667;42.872;74.622;2024-03-02T13:29:42;1.40;70.40
52799;DHT22;38667;42.872;74.622;2024-03-02T13:32:09;1.40;70.50
52799;DHT22;38667;42.872;74.622;2024-03-02T13:34:35;1.40;70.70
52799;DHT22;38667;42.872;74.622;2024-03-02T13:37:02;1.50;71.20
52799;DHT22;38667;42.872;74.622;2024-03-02T13:39:28;1.50;71.30
52799;DHT22;38667;42.872;74.622;2024-03-02T13:41:56;1.50;71.30
52799;DHT22;38667;42.872;74.622;2024-03-02T13:44:22;1.40;71.30
52799;DHT22;38667;42.872;74.622;2024-03-02T13:46:49;1.40;71.60
52799;DHT22;38667;42.872;74.622;2024-03-02T13:49:15;1.40;72.10
52799;DHT22;38667;42.872;74.622;2024-03-02T13:51:41;1.30;72.40
52799;DHT22;38667;42.872;74.622;2024-03-02T13:54:08;1.30;72.50
52799;DHT22;38667;42.872;74.622;2024-03-02T13:56:34;1.30;72.80
52799;DHT22;38667;42.872;74.622;2024-03-02T13:59:02;1.40;72.80
52799;DHT22;38667;42.872;74.622;2024-03-02T14:01:31;1.40;72.90
52799;DHT22;38667;42.872;74.622;2024-03-02T14:03:58;1.50;72.70
52799;DHT22;38667;42.872;74.622;2024-03-02T14:06:24;1.50;72.70
52799;DHT22;38667;42.872;74.622;2024-03-02T14:08:51;1.40;72.60
52799;DHT22;38667;42.872;74.622;2024-03-02T14:11:17;1.50;72.50
52799;DHT22;38667;42.872;74.622;2024-03-02T14:13:43;1.50;72.10
52799;DHT22;38667;42.872;74.622;2024-03-02T14:16:12;1.50;72.40
52799;DHT22;38667;42.872;74.622;2024-03-02T14:18:39;1.40;72.30
52799;DHT22;38667;42.872;74.622;2024-03-02T14:21:05;1.30;72.60
52799;DHT22;38667;42.872;74.622;2024-03-02T14:23:31;1.40;72.50
52799;DHT22;38667;42.872;74.622;2024-03-02T14:25:58;1.40;72.80
52799;DHT22;38667;42.872;74.622;2024-03-02T14:28:24;1.40;72.40
52799;DHT22;38667;42.872;74.622;2024-03-02T14:30:51;1.40;72.30
52799;DHT22;38667;42.872;74.622;2024-03-02T14:33:19;1.50;72.90
52799;DHT22;38667;42.872;74.622;2024-03-02T14:35:45;1.50;72.40
52799;DHT22;38667;42.872;74.622;2024-03-02T14:38:12;1.50;72.10
52799;DHT22;38667;42.872;74.622;2024-03-02T14:40:38;1.50;72.60
52799;DHT22;38667;42.872;74.622;2024-03-02T14:43:05;1.50;72.50
52799;DHT22;38667;42.872;74.622;2024-03-02T14:45:31;1.50;72.80
52799;DHT22;38667;42.872;74.622;2024-03-02T14:47:57;1.50;73.10
52799;DHT22;38667;42.872;74.622;2024-03-02T14:50:26;1.60;73.00
52799;DHT22;38667;42.872;74.622;2024-03-02T14:52:52;1.60;72.70
52799;DHT22;38667;42.872;74.622;2024-03-02T14:55:18;1.60;73.00
52799;DHT22;38667;42.872;74.622;2024-03-02T14:57:45;1.50;72.30
52799;DHT22;38667;42.872;74.622;2024-03-02T15:00:12;1.50;71.80
52799;DHT22;38667;42.872;74.622;2024-03-02T15:02:38;1.50;70.80
52799;DHT22;38667;42.872;74.622;2024-03-02T15:05:05;1.50;70.60
52799;DHT22;38667;42.872;74.622;2024-03-02T15:07:34;1.50;70.80
52799;DHT22;38667;42.872;74.622;2024-03-02T15:10:00;1.50;71.50
52799;DHT22;38667;42.872;74.622;2024-03-02T15:12:26;1.50;70.90
52799;DHT22;38667;42.872;74.622;2024-03-02T15:14:53;1.50;71.00
52799;DHT22;38667;42.872;74.622;2024-03-02T15:17:19;1.50;71.20
52799;DHT22;38667;42.872;74.622;2024-03-02T15:19:46;1.50;71.10
52799;DHT22;38667;42.872;74.622;2024-03-02T15:22:12;1.50;71.70
52799;DHT22;38667;42.872;74.622;2024-03-02T15:24:40;1.50;73.00
52799;DHT22;38667;42.872;74.622;2024-03-02T15:27:07;1.50;72.50
52799;DHT22;38667;42.872;74.622;2024-03-02T15:29:33;1.50;73.00